sensor_id;sensor_type;location;lat;lon;timestamp;temperature;humidity
2409;DHT22;8463;48.094;7.970;2022-09-12T00:00:37;15.30;42.40
2409;DHT22;8463;48.094;7.970;2022-09-12T00:03:02;15.40;42.90
2409;DHT22;8463;48.094;7.970;2022-09-12T00:05:28;15.40;42.90
2409;DHT22;8463;48.094;7.970;2022-09-12T00:07:55;15.30;43.30
2409;DHT22;8463;48.094;7.970;2022-09-12T00:10:21;15.30;43.20
2409;DHT22;8463;48.094;7.970;2022-09-12T00:12:47;15.30;43.00
2409;DHT22;8463;48.094;7.970;2022-09-12T00:15:12;15.40;42.80
2409;DHT22;8463;48.094;7.970;2022-09-12T00:17:38;15.40;43.00
2409;DHT22;8463;48.094;7.970;2022-09-12T00:20:06;15.30;42.80
2409;DHT22;8463;48.094;7.970;2022-09-12T00:22:33;15.30;42.40
2409;DHT22;8463;48.094;7.970;2022-09-12T00:24:59;15.30;43.10
2409;DHT22;8463;48.094;7.970;2022-09-12T00:27:26;15.30;42.90
2409;DHT22;8463;48.094;7.970;2022-09-12T00:29:51;15.30;43.10
2409;DHT22;8463;48.094;7.970;2022-09-12T00:32:18;15.30;42.70
2409;DHT22;8463;48.094;7.970;2022-09-12T00:34:44;15.20;43.20
2409;DHT22;8463;48.094;7.970;2022-09-12T00:37:09;15.30;43.50
2409;DHT22;8463;48.094;7.970;2022-09-12T00:39:35;15.30;42.90
2409;DHT22;8463;48.094;7.970;2022-09-12T00:42:01;15.30;43.10
2409;DHT22;8463;48.094;7.970;2022-09-12T00:46:58;15.30;42.90
2409;DHT22;8463;48.094;7.970;2022-09-12T00:52:33;15.20;43.20
2409;DHT22;8463;48.094;7.970;2022-09-12T00:55:09;15.20;43.30
2409;DHT22;8463;48.094;7.970;2022-09-12T00:57:51;15.30;43.00
2409;DHT22;8463;48.094;7.970;2022-09-12T01:00:20;15.30;43.00
2409;DHT22;8463;48.094;7.970;2022-09-12T01:02:50;15.20;42.40
2409;DHT22;8463;48.094;7.970;2022-09-12T01:05:18;15.20;42.40
2409;DHT22;8463;48.094;7.970;2022-09-12T01:07:45;15.20;42.80
2409;DHT22;8463;48.094;7.970;2022-09-12T01:10:13;15.00;42.70
2409;DHT22;8463;48.094;7.970;2022-09-12T01:12:40;15.20;43.10
2409;DHT22;8463;48.094;7.970;2022-09-12T01:15:07;15.20;42.80
2409;DHT22;8463;48.094;7.970;2022-09-12T01:23:52;15.30;43.30
2409;DHT22;8463;48.094;7.970;2022-09-12T01:34:44;15.00;43.60
2409;DHT22;8463;48.094;7.970;2022-09-12T01:37:20;14.90;43.90
2409;DHT22;8463;48.094;7.970;2022-09-12T01:51:17;14.50;46.70
2409;DHT22;8463;48.094;7.970;2022-09-12T01:56:27;14.60;46.60
2409;DHT22;8463;48.094;7.970;2022-09-12T02:01:32;14.80;44.70
2409;DHT22;8463;48.094;7.970;2022-09-12T02:04:08;14.80;44.70
2409;DHT22;8463;48.094;7.970;2022-09-12T02:06:59;14.90;43.80
2409;DHT22;8463;48.094;7.970;2022-09-12T02:09:41;14.90;43.90
2409;DHT22;8463;48.094;7.970;2022-09-12T02:12:10;14.80;43.40
2409;DHT22;8463;48.094;7.970;2022-09-12T02:14:44;14.90;43.20
2409;DHT22;8463;48.094;7.970;2022-09-12T02:17:20;14.80;43.30
2409;DHT22;8463;48.094;7.970;2022-09-12T02:19:54;14.80;43.90
2409;DHT22;8463;48.094;7.970;2022-09-12T02:22:24;14.90;44.20
2409;DHT22;8463;48.094;7.970;2022-09-12T02:24:54;14.80;43.70
2409;DHT22;8463;48.094;7.970;2022-09-12T02:29:56;14.80;43.90
2409;DHT22;8463;48.094;7.970;2022-09-12T02:32:36;14.60;44.20
2409;DHT22;8463;48.094;7.970;2022-09-12T02:35:15;14.80;43.90
2409;DHT22;8463;48.094;7.970;2022-09-12T02:40:28;14.70;44.10
2409;DHT22;8463;48.094;7.970;2022-09-12T02:42:54;14.70;43.80
2409;DHT22;8463;48.094;7.970;2022-09-12T02:45:20;14.60;44.20
2409;DHT22;8463;48.094;7.970;2022-09-12T02:47:51;14.60;45.30
2409;DHT22;8463;48.094;7.970;2022-09-12T02:50:19;14.50;45.20
2409;DHT22;8463;48.094;7.970;2022-09-12T02:52:45;14.50;44.90
2409;DHT22;8463;48.094;7.970;2022-09-12T02:55:13;14.40;44.90
2409;DHT22;8463;48.094;7.970;2022-09-12T02:57:39;14.40;44.90
2409;DHT22;8463;48.094;7.970;2022-09-12T03:00:05;14.50;45.90
2409;DHT22;8463;48.094;7.970;2022-09-12T03:07:59;14.30;46.20
2409;DHT22;8463;48.094;7.970;2022-09-12T03:13:32;14.40;46.30
2409;DHT22;8463;48.094;7.970;2022-09-12T03:24:52;14.50;44.30
2409;DHT22;8463;48.094;7.970;2022-09-12T03:27:32;14.40;44.70
2409;DHT22;8463;48.094;7.970;2022-09-12T03:32:46;14.40;44.30
2409;DHT22;8463;48.094;7.970;2022-09-12T03:35:14;14.50;44.00
2409;DHT22;8463;48.094;7.970;2022-09-12T03:37:40;14.50;43.50
2409;DHT22;8463;48.094;7.970;2022-09-12T03:40:07;14.50;43.60
2409;DHT22;8463;48.094;7.970;2022-09-12T03:42:33;14.50;43.60
2409;DHT22;8463;48.094;7.970;2022-09-12T03:44:58;14.40;43.60
2409;DHT22;8463;48.094;7.970;2022-09-12T03:47:24;14.50;43.80
2409;DHT22;8463;48.094;7.970;2022-09-12T03:49:49;14.40;43.60
2409;DHT22;8463;48.094;7.970;2022-09-12T03:52:17;14.40;43.40
2409;DHT22;8463;48.094;7.970;2022-09-12T03:57:09;14.40;42.90
2409;DHT22;8463;48.094;7.970;2022-09-12T03:59:35;14.40;42.90
2409;DHT22;8463;48.094;7.970;2022-09-12T04:04:27;13.80;43.10
2409;DHT22;8463;48.094;7.970;2022-09-12T04:09:18;14.40;42.90
2409;DHT22;8463;48.094;7.970;2022-09-12T04:11:44;14.30;43.40
2409;DHT22;8463;48.094;7.970;2022-09-12T04:16:35;14.20;43.60
2409;DHT22;8463;48.094;7.970;2022-09-12T04:19:01;14.20;43.90
2409;DHT22;8463;48.094;7.970;2022-09-12T04:26:19;14.10;44.00
2409;DHT22;8463;48.094;7.970;2022-09-12T04:28:45;14.10;44.70
2409;DHT22;8463;48.094;7.970;2022-09-12T04:31:14;14.00;44.60
2409;DHT22;8463;48.094;7.970;2022-09-12T04:33:42;14.10;45.10
2409;DHT22;8463;48.094;7.970;2022-09-12T04:38:36;13.90;44.70
2409;DHT22;8463;48.094;7.970;2022-09-12T04:41:13;13.90;45.10
2409;DHT22;8463;48.094;7.970;2022-09-12T04:43:39;14.00;44.50
2409;DHT22;8463;48.094;7.970;2022-09-12T04:46:10;13.90;44.80
2409;DHT22;8463;48.094;7.970;2022-09-12T04:48:36;14.00;44.60
2409;DHT22;8463;48.094;7.970;2022-09-12T04:51:24;14.40;44.90
2409;DHT22;8463;48.094;7.970;2022-09-12T04:53:53;14.10;44.00
2409;DHT22;8463;48.094;7.970;2022-09-12T04:56:20;14.00;43.70
2409;DHT22;8463;48.094;7.970;2022-09-12T05:01:17;14.00;44.00
2409;DHT22;8463;48.094;7.970;2022-09-12T05:03:44;13.90;43.90
2409;DHT22;8463;48.094;7.970;2022-09-12T05:06:16;13.90;43.30
2409;DHT22;8463;48.094;7.970;2022-09-12T05:08:42;13.90;43.40
2409;DHT22;8463;48.094;7.970;2022-09-12T05:11:14;13.90;42.70
2409;DHT22;8463;48.094;7.970;2022-09-12T05:13:40;14.00;43.40
2409;DHT22;8463;48.094;7.970;2022-09-12T05:16:08;13.90;42.40
2409;DHT22;8463;48.094;7.970;2022-09-12T05:18:35;13.80;44.10
2409;DHT22;8463;48.094;7.970;2022-09-12T05:21:03;13.70;44.40
2409;DHT22;8463;48.094;7.970;2022-09-12T05:25:57;13.70;44.90
2409;DHT22;8463;48.094;7.970;2022-09-12T05:31:00;13.70;45.20
2409;DHT22;8463;48.094;7.970;2022-09-12T05:33:27;13.80;45.00
2409;DHT22;8463;48.094;7.970;2022-09-12T05:35:52;13.90;47.10
2409;DHT22;8463;48.094;7.970;2022-09-12T05:38:18;14.60;58.10
2409;DHT22;8463;48.094;7.970;2022-09-12T05:40:44;16.60;62.80
2409;DHT22;8463;48.094;7.970;2022-09-12T05:43:10;15.00;57.40
2409;DHT22;8463;48.094;7.970;2022-09-12T05:45:37;15.30;52.40
2409;DHT22;8463;48.094;7.970;2022-09-12T05:48:03;15.50;47.70
2409;DHT22;8463;48.094;7.970;2022-09-12T05:52:56;15.80;47.40
2409;DHT22;8463;48.094;7.970;2022-09-12T05:55:22;15.90;45.20
2409;DHT22;8463;48.094;7.970;2022-09-12T05:57:49;15.40;37.30
2409;DHT22;8463;48.094;7.970;2022-09-12T06:00:16;15.00;38.30
2409;DHT22;8463;48.094;7.970;2022-09-12T06:02:42;14.70;40.20
2409;DHT22;8463;48.094;7.970;2022-09-12T06:05:07;14.60;40.40
2409;DHT22;8463;48.094;7.970;2022-09-12T06:07:33;14.60;42.00
2409;DHT22;8463;48.094;7.970;2022-09-12T06:12:28;14.50;42.70
2409;DHT22;8463;48.094;7.970;2022-09-12T06:14:54;14.60;42.80
2409;DHT22;8463;48.094;7.970;2022-09-12T06:19:47;14.50;42.70
2409;DHT22;8463;48.094;7.970;2022-09-12T06:22:14;14.60;42.60
2409;DHT22;8463;48.094;7.970;2022-09-12T06:24:40;14.60;42.20
2409;DHT22;8463;48.094;7.970;2022-09-12T06:29:32;14.70;42.40
2409;DHT22;8463;48.094;7.970;2022-09-12T06:31:57;14.80;41.80
2409;DHT22;8463;48.094;7.970;2022-09-12T06:34:23;15.10;41.20
2409;DHT22;8463;48.094;7.970;2022-09-12T06:36:51;15.10;42.00
2409;DHT22;8463;48.094;7.970;2022-09-12T06:39:19;15.00;41.50
2409;DHT22;8463;48.094;7.970;2022-09-12T06:41:45;15.40;41.50
2409;DHT22;8463;48.094;7.970;2022-09-12T06:44:19;14.90;41.90
2409;DHT22;8463;48.094;7.970;2022-09-12T06:46:45;14.80;42.70
2409;DHT22;8463;48.094;7.970;2022-09-12T06:49:12;14.70;42.30
2409;DHT22;8463;48.094;7.970;2022-09-12T06:51:38;15.10;42.60
2409;DHT22;8463;48.094;7.970;2022-09-12T06:54:04;15.20;41.90
2409;DHT22;8463;48.094;7.970;2022-09-12T06:56:30;15.40;41.90
2409;DHT22;8463;48.094;7.970;2022-09-12T06:58:56;15.50;41.40
2409;DHT22;8463;48.094;7.970;2022-09-12T07:01:24;16.00;38.20
2409;DHT22;8463;48.094;7.970;2022-09-12T07:03:55;16.60;36.30
2409;DHT22;8463;48.094;7.970;2022-09-12T07:06:23;16.80;33.80
2409;DHT22;8463;48.094;7.970;2022-09-12T07:08:49;16.60;32.10
2409;DHT22;8463;48.094;7.970;2022-09-12T07:13:46;16.70;34.50
2409;DHT22;8463;48.094;7.970;2022-09-12T07:16:13;16.90;33.20
2409;DHT22;8463;48.094;7.970;2022-09-12T07:18:40;17.30;32.80
2409;DHT22;8463;48.094;7.970;2022-09-12T07:21:09;17.20;30.60
2409;DHT22;8463;48.094;7.970;2022-09-12T07:23:35;17.40;31.00
2409;DHT22;8463;48.094;7.970;2022-09-12T07:26:01;17.50;29.00
2409;DHT22;8463;48.094;7.970;2022-09-12T07:28:29;17.60;30.30
2409;DHT22;8463;48.094;7.970;2022-09-12T07:30:56;17.80;29.60
2409;DHT22;8463;48.094;7.970;2022-09-12T07:33:23;18.00;27.80
2409;DHT22;8463;48.094;7.970;2022-09-12T07:40:42;18.10;28.40
2409;DHT22;8463;48.094;7.970;2022-09-12T07:43:08;18.50;26.00
2409;DHT22;8463;48.094;7.970;2022-09-12T07:45:33;18.40;26.20
2409;DHT22;8463;48.094;7.970;2022-09-12T07:47:59;18.40;25.30
2409;DHT22;8463;48.094;7.970;2022-09-12T07:50:25;18.40;26.90
2409;DHT22;8463;48.094;7.970;2022-09-12T07:52:52;18.40;26.00
2409;DHT22;8463;48.094;7.970;2022-09-12T07:55:20;18.30;26.40
2409;DHT22;8463;48.094;7.970;2022-09-12T07:57:50;18.40;26.60
2409;DHT22;8463;48.094;7.970;2022-09-12T08:02:42;18.60;24.70
2409;DHT22;8463;48.094;7.970;2022-09-12T08:07:34;18.30;26.00
2409;DHT22;8463;48.094;7.970;2022-09-12T08:12:29;18.20;26.50
2409;DHT22;8463;48.094;7.970;2022-09-12T08:14:56;18.20;26.80
2409;DHT22;8463;48.094;7.970;2022-09-12T08:17:22;18.20;25.80
2409;DHT22;8463;48.094;7.970;2022-09-12T08:19:48;18.20;26.60
2409;DHT22;8463;48.094;7.970;2022-09-12T08:22:13;18.50;26.10
2409;DHT22;8463;48.094;7.970;2022-09-12T08:24:39;18.80;26.40
2409;DHT22;8463;48.094;7.970;2022-09-12T08:27:06;19.10;24.50
2409;DHT22;8463;48.094;7.970;2022-09-12T08:29:31;19.20;21.70
2409;DHT22;8463;48.094;7.970;2022-09-12T08:31:57;19.30;21.80
2409;DHT22;8463;48.094;7.970;2022-09-12T08:36:50;19.50;22.30
2409;DHT22;8463;48.094;7.970;2022-09-12T08:41:46;19.60;21.20
2409;DHT22;8463;48.094;7.970;2022-09-12T08:49:56;20.10;22.40
2409;DHT22;8463;48.094;7.970;2022-09-12T08:53:03;20.60;20.50
2409;DHT22;8463;48.094;7.970;2022-09-12T08:58:21;20.90;15.80
2409;DHT22;8463;48.094;7.970;2022-09-12T09:10:46;20.90;16.00
2409;DHT22;8463;48.094;7.970;2022-09-12T09:13:48;20.70;17.20
2409;DHT22;8463;48.094;7.970;2022-09-12T09:16:35;20.40;17.70
2409;DHT22;8463;48.094;7.970;2022-09-12T09:19:05;20.30;17.80
2409;DHT22;8463;48.094;7.970;2022-09-12T09:21:51;20.30;18.20
2409;DHT22;8463;48.094;7.970;2022-09-12T09:24:20;20.20;18.10
2409;DHT22;8463;48.094;7.970;2022-09-12T09:29:32;20.30;18.30
2409;DHT22;8463;48.094;7.970;2022-09-12T09:32:00;20.40;17.90
2409;DHT22;8463;48.094;7.970;2022-09-12T09:34:29;20.60;18.60
2409;DHT22;8463;48.094;7.970;2022-09-12T09:44:41;20.60;17.00
2409;DHT22;8463;48.094;7.970;2022-09-12T09:47:09;20.90;16.20
2409;DHT22;8463;48.094;7.970;2022-09-12T09:49:35;21.00;15.90
2409;DHT22;8463;48.094;7.970;2022-09-12T09:52:02;21.10;14.80
2409;DHT22;8463;48.094;7.970;2022-09-12T09:54:41;21.30;14.90
2409;DHT22;8463;48.094;7.970;2022-09-12T10:05:47;21.40;14.80
2409;DHT22;8463;48.094;7.970;2022-09-12T10:08:31;21.40;15.20
2409;DHT22;8463;48.094;7.970;2022-09-12T10:10:58;21.60;15.20
2409;DHT22;8463;48.094;7.970;2022-09-12T10:13:33;21.60;15.60
2409;DHT22;8463;48.094;7.970;2022-09-12T10:18:33;21.80;13.40
2409;DHT22;8463;48.094;7.970;2022-09-12T10:20:59;21.90;12.60
2409;DHT22;8463;48.094;7.970;2022-09-12T10:23:31;21.80;12.60
2409;DHT22;8463;48.094;7.970;2022-09-12T10:26:03;22.00;13.40
2409;DHT22;8463;48.094;7.970;2022-09-12T10:28:51;22.20;11.30
2409;DHT22;8463;48.094;7.970;2022-09-12T10:31:27;22.30;11.30
2409;DHT22;8463;48.094;7.970;2022-09-12T10:33:56;22.20;11.40
2409;DHT22;8463;48.094;7.970;2022-09-12T10:36:23;22.60;12.20
2409;DHT22;8463;48.094;7.970;2022-09-12T10:38:54;22.80;8.50
2409;DHT22;8463;48.094;7.970;2022-09-12T10:41:21;22.60;8.70
2409;DHT22;8463;48.094;7.970;2022-09-12T10:48:43;23.10;8.40
2409;DHT22;8463;48.094;7.970;2022-09-12T10:51:30;23.30;7.90
2409;DHT22;8463;48.094;7.970;2022-09-12T11:02:30;23.70;7.50
2409;DHT22;8463;48.094;7.970;2022-09-12T11:21:51;24.40;2.90
2409;DHT22;8463;48.094;7.970;2022-09-12T11:29:58;24.50;2.10
2409;DHT22;8463;48.094;7.970;2022-09-12T11:32:56;24.50;1.00
2409;DHT22;8463;48.094;7.970;2022-09-12T11:35:28;24.40;1.00
2409;DHT22;8463;48.094;7.970;2022-09-12T11:43:34;24.70;1.00
2409;DHT22;8463;48.094;7.970;2022-09-12T11:48:58;25.00;1.00
2409;DHT22;8463;48.094;7.970;2022-09-12T11:52:18;24.80;1.00
2409;DHT22;8463;48.094;7.970;2022-09-12T11:56:50;24.90;1.00
2409;DHT22;8463;48.094;7.970;2022-09-12T12:01:57;25.20;1.00
2409;DHT22;8463;48.094;7.970;2022-09-12T12:04:31;25.30;1.00
2409;DHT22;8463;48.094;7.970;2022-09-12T12:07:06;25.50;1.00
2409;DHT22;8463;48.094;7.970;2022-09-12T12:12:03;25.60;1.00
2409;DHT22;8463;48.094;7.970;2022-09-12T12:14:41;25.70;1.00
2409;DHT22;8463;48.094;7.970;2022-09-12T12:17:16;25.90;1.00
2409;DHT22;8463;48.094;7.970;2022-09-12T12:19:44;25.90;1.00
2409;DHT22;8463;48.094;7.970;2022-09-12T12:22:22;25.80;1.00
2409;DHT22;8463;48.094;7.970;2022-09-12T12:27:57;25.60;1.00
2409;DHT22;8463;48.094;7.970;2022-09-12T12:36:04;26.00;1.00
2409;DHT22;8463;48.094;7.970;2022-09-12T12:43:49;25.90;1.00
2409;DHT22;8463;48.094;7.970;2022-09-12T12:46:20;26.10;1.00
2409;DHT22;8463;48.094;7.970;2022-09-12T12:48:50;26.20;1.00
2409;DHT22;8463;48.094;7.970;2022-09-12T12:54:25;26.10;1.00
2409;DHT22;8463;48.094;7.970;2022-09-12T12:59:25;26.40;1.00
2409;DHT22;8463;48.094;7.970;2022-09-12T13:01:56;26.80;1.00
2409;DHT22;8463;48.094;7.970;2022-09-12T13:04:26;27.00;1.00
2409;DHT22;8463;48.094;7.970;2022-09-12T13:07:07;27.00;1.00
2409;DHT22;8463;48.094;7.970;2022-09-12T13:14:52;27.40;1.00
2409;DHT22;8463;48.094;7.970;2022-09-12T13:17:32;27.40;1.00
2409;DHT22;8463;48.094;7.970;2022-09-12T13:22:42;27.20;1.00
2409;DHT22;8463;48.094;7.970;2022-09-12T13:25:32;27.30;1.00
2409;DHT22;8463;48.094;7.970;2022-09-12T13:30:23;26.70;1.00
2409;DHT22;8463;48.094;7.970;2022-09-12T13:32:51;26.60;1.00
2409;DHT22;8463;48.094;7.970;2022-09-12T13:35:35;26.80;1.00
2409;DHT22;8463;48.094;7.970;2022-09-12T13:38:28;26.90;1.00
2409;DHT22;8463;48.094;7.970;2022-09-12T13:41:03;26.70;1.00
2409;DHT22;8463;48.094;7.970;2022-09-12T13:43:42;26.90;1.00
2409;DHT22;8463;48.094;7.970;2022-09-12T13:46:16;26.70;1.00
2409;DHT22;8463;48.094;7.970;2022-09-12T13:48:43;26.80;1.00
2409;DHT22;8463;48.094;7.970;2022-09-12T13:51:24;27.10;1.00
2409;DHT22;8463;48.094;7.970;2022-09-12T13:53:52;27.10;1.00
2409;DHT22;8463;48.094;7.970;2022-09-12T13:56:20;27.10;1.00
2409;DHT22;8463;48.094;7.970;2022-09-12T13:58:55;27.30;1.00
2409;DHT22;8463;48.094;7.970;2022-09-12T14:01:37;27.40;1.00
2409;DHT22;8463;48.094;7.970;2022-09-12T14:06:59;27.00;1.00
2409;DHT22;8463;48.094;7.970;2022-09-12T14:09:33;27.20;1.00
2409;DHT22;8463;48.094;7.970;2022-09-12T14:11:59;27.20;1.00
2409;DHT22;8463;48.094;7.970;2022-09-12T14:14:30;27.30;1.00
2409;DHT22;8463;48.094;7.970;2022-09-12T14:16:59;27.40;1.00
2409;DHT22;8463;48.094;7.970;2022-09-12T14:19:25;27.00;1.00
2409;DHT22;8463;48.094;7.970;2022-09-12T14:21:54;27.20;1.00
2409;DHT22;8463;48.094;7.970;2022-09-12T14:24:20;27.20;1.00
2409;DHT22;8463;48.094;7.970;2022-09-12T14:26:48;27.20;1.00
2409;DHT22;8463;48.094;7.970;2022-09-12T14:29:15;27.00;1.00
2409;DHT22;8463;48.094;7.970;2022-09-12T14:31:42;27.20;1.00
2409;DHT22;8463;48.094;7.970;2022-09-12T14:34:13;27.60;1.00
2409;DHT22;8463;48.094;7.970;2022-09-12T14:36:48;27.50;1.00
2409;DHT22;8463;48.094;7.970;2022-09-12T14:39:29;27.80;1.00
2409;DHT22;8463;48.094;7.970;2022-09-12T14:44:29;28.00;1.00
2409;DHT22;8463;48.094;7.970;2022-09-12T14:51:57;27.70;1.00
2409;DHT22;8463;48.094;7.970;2022-09-12T14:57:02;27.50;1.00
2409;DHT22;8463;48.094;7.970;2022-09-12T15:02:20;27.60;1.00
2409;DHT22;8463;48.094;7.970;2022-09-12T15:04:49;27.90;1.00
2409;DHT22;8463;48.094;7.970;2022-09-12T15:12:14;29.30;1.00
2409;DHT22;8463;48.094;7.970;2022-09-12T15:14:39;29.60;1.00
2409;DHT22;8463;48.094;7.970;2022-09-12T15:17:05;29.70;1.00
2409;DHT22;8463;48.094;7.970;2022-09-12T15:19:30;29.70;1.00
2409;DHT22;8463;48.094;7.970;2022-09-12T15:21:56;29.80;1.00
2409;DHT22;8463;48.094;7.970;2022-09-12T15:29:15;29.70;1.00
2409;DHT22;8463;48.094;7.970;2022-09-12T15:31:41;29.80;1.00
2409;DHT22;8463;48.094;7.970;2022-09-12T15:34:10;29.90;1.00
2409;DHT22;8463;48.094;7.970;2022-09-12T15:36:36;30.00;1.00
2409;DHT22;8463;48.094;7.970;2022-09-12T15:39:01;29.40;1.00
2409;DHT22;8463;48.094;7.970;2022-09-12T15:41:30;29.60;1.00
2409;DHT22;8463;48.094;7.970;2022-09-12T15:46:23;28.60;1.00
2409;DHT22;8463;48.094;7.970;2022-09-12T15:48:48;28.20;1.00
2409;DHT22;8463;48.094;7.970;2022-09-12T15:51:17;28.00;1.00
2409;DHT22;8463;48.094;7.970;2022-09-12T15:53:43;28.30;1.00
2409;DHT22;8463;48.094;7.970;2022-09-12T15:58:35;26.90;1.00
2409;DHT22;8463;48.094;7.970;2022-09-12T16:03:28;26.40;1.00
2409;DHT22;8463;48.094;7.970;2022-09-12T16:10:58;25.50;1.50
2409;DHT22;8463;48.094;7.970;2022-09-12T16:15:51;25.60;1.20
2409;DHT22;8463;48.094;7.970;2022-09-12T16:20:43;26.20;1.00
2409;DHT22;8463;48.094;7.970;2022-09-12T16:23:11;26.50;1.00
2409;DHT22;8463;48.094;7.970;2022-09-12T16:30:31;27.10;1.00
2409;DHT22;8463;48.094;7.970;2022-09-12T16:32:56;27.50;1.00
2409;DHT22;8463;48.094;7.970;2022-09-12T16:40:15;27.80;1.00
2409;DHT22;8463;48.094;7.970;2022-09-12T16:42:42;27.70;1.00
2409;DHT22;8463;48.094;7.970;2022-09-12T16:45:08;27.60;1.00
2409;DHT22;8463;48.094;7.970;2022-09-12T16:47:34;27.40;1.00
2409;DHT22;8463;48.094;7.970;2022-09-12T16:52:26;27.20;1.00
2409;DHT22;8463;48.094;7.970;2022-09-12T16:57:17;26.60;1.00
2409;DHT22;8463;48.094;7.970;2022-09-12T16:59:43;25.80;2.20
2409;DHT22;8463;48.094;7.970;2022-09-12T17:02:12;25.90;2.90
2409;DHT22;8463;48.094;7.970;2022-09-12T17:04:38;26.00;3.00
2409;DHT22;8463;48.094;7.970;2022-09-12T17:07:04;25.80;2.90
2409;DHT22;8463;48.094;7.970;2022-09-12T17:09:30;25.80;3.40
2409;DHT22;8463;48.094;7.970;2022-09-12T17:11:56;25.80;3.70
2409;DHT22;8463;48.094;7.970;2022-09-12T17:14:22;25.70;2.50
2409;DHT22;8463;48.094;7.970;2022-09-12T17:16:48;25.80;3.10
2409;DHT22;8463;48.094;7.970;2022-09-12T17:19:18;25.70;2.60
2409;DHT22;8463;48.094;7.970;2022-09-12T17:21:44;25.60;2.80
2409;DHT22;8463;48.094;7.970;2022-09-12T17:24:12;25.50;4.50
2409;DHT22;8463;48.094;7.970;2022-09-12T17:31:30;25.10;4.40
2409;DHT22;8463;48.094;7.970;2022-09-12T17:34:00;24.90;5.00
2409;DHT22;8463;48.094;7.970;2022-09-12T17:36:27;24.80;4.80
2409;DHT22;8463;48.094;7.970;2022-09-12T17:38:52;24.60;5.90
2409;DHT22;8463;48.094;7.970;2022-09-12T17:41:21;24.40;6.70
2409;DHT22;8463;48.094;7.970;2022-09-12T17:46:18;24.30;7.70
2409;DHT22;8463;48.094;7.970;2022-09-12T17:48:52;24.20;9.30
2409;DHT22;8463;48.094;7.970;2022-09-12T17:51:19;24.20;10.10
2409;DHT22;8463;48.094;7.970;2022-09-12T17:53:46;24.10;10.20
2409;DHT22;8463;48.094;7.970;2022-09-12T17:56:12;23.80;9.50
2409;DHT22;8463;48.094;7.970;2022-09-12T17:58:37;23.80;9.60
2409;DHT22;8463;48.094;7.970;2022-09-12T18:01:05;23.60;10.10
2409;DHT22;8463;48.094;7.970;2022-09-12T18:03:54;23.50;10.30
2409;DHT22;8463;48.094;7.970;2022-09-12T18:06:23;23.50;10.90
2409;DHT22;8463;48.094;7.970;2022-09-12T18:08:49;23.40;10.70
2409;DHT22;8463;48.094;7.970;2022-09-12T18:11:15;23.30;10.50
2409;DHT22;8463;48.094;7.970;2022-09-12T18:21:02;22.90;11.60
2409;DHT22;8463;48.094;7.970;2022-09-12T18:23:28;22.80;11.60
2409;DHT22;8463;48.094;7.970;2022-09-12T18:26:02;22.70;11.50
2409;DHT22;8463;48.094;7.970;2022-09-12T18:28:28;22.70;11.50
2409;DHT22;8463;48.094;7.970;2022-09-12T18:30:56;22.60;11.50
2409;DHT22;8463;48.094;7.970;2022-09-12T18:33:21;22.50;12.10
2409;DHT22;8463;48.094;7.970;2022-09-12T18:35:47;22.40;12.50
2409;DHT22;8463;48.094;7.970;2022-09-12T18:38:12;22.20;13.30
2409;DHT22;8463;48.094;7.970;2022-09-12T18:40:38;21.80;13.80
2409;DHT22;8463;48.094;7.970;2022-09-12T18:43:03;21.60;14.60
2409;DHT22;8463;48.094;7.970;2022-09-12T18:45:29;21.40;14.80
2409;DHT22;8463;48.094;7.970;2022-09-12T18:50:22;21.40;15.00
2409;DHT22;8463;48.094;7.970;2022-09-12T18:52:51;21.50;15.40
2409;DHT22;8463;48.094;7.970;2022-09-12T18:57:43;21.40;15.40
2409;DHT22;8463;48.094;7.970;2022-09-12T19:05:02;21.00;16.50
2409;DHT22;8463;48.094;7.970;2022-09-12T19:07:28;20.90;17.10
2409;DHT22;8463;48.094;7.970;2022-09-12T19:09:54;20.90;17.30
2409;DHT22;8463;48.094;7.970;2022-09-12T19:12:20;20.70;17.50
2409;DHT22;8463;48.094;7.970;2022-09-12T19:14:45;20.70;18.00
2409;DHT22;8463;48.094;7.970;2022-09-12T19:17:11;20.50;17.90
2409;DHT22;8463;48.094;7.970;2022-09-12T19:19:37;20.40;17.90
2409;DHT22;8463;48.094;7.970;2022-09-12T19:22:02;20.30;18.30
2409;DHT22;8463;48.094;7.970;2022-09-12T19:24:28;20.30;18.70
2409;DHT22;8463;48.094;7.970;2022-09-12T19:26:54;20.20;19.20
2409;DHT22;8463;48.094;7.970;2022-09-12T19:34:12;19.90;19.20
2409;DHT22;8463;48.094;7.970;2022-09-12T19:39:05;20.00;19.60
2409;DHT22;8463;48.094;7.970;2022-09-12T19:41:31;19.90;19.60
2409;DHT22;8463;48.094;7.970;2022-09-12T19:43:57;19.70;20.30
2409;DHT22;8463;48.094;7.970;2022-09-12T19:46:24;19.50;20.80
2409;DHT22;8463;48.094;7.970;2022-09-12T19:48:50;19.60;21.20
2409;DHT22;8463;48.094;7.970;2022-09-12T19:51:18;19.50;21.10
2409;DHT22;8463;48.094;7.970;2022-09-12T19:53:44;19.40;21.00
2409;DHT22;8463;48.094;7.970;2022-09-12T19:56:12;19.40;21.00
2409;DHT22;8463;48.094;7.970;2022-09-12T19:58:40;19.40;21.90
2409;DHT22;8463;48.094;7.970;2022-09-12T20:06:14;19.40;26.70
2409;DHT22;8463;48.094;7.970;2022-09-12T20:08:40;19.60;25.10
2409;DHT22;8463;48.094;7.970;2022-09-12T20:11:07;19.60;24.90
2409;DHT22;8463;48.094;7.970;2022-09-12T20:13:33;19.60;23.10
2409;DHT22;8463;48.094;7.970;2022-09-12T20:16:10;19.50;22.40
2409;DHT22;8463;48.094;7.970;2022-09-12T20:18:36;19.40;21.90
2409;DHT22;8463;48.094;7.970;2022-09-12T20:21:11;19.40;22.60
2409;DHT22;8463;48.094;7.970;2022-09-12T20:23:36;19.20;22.30
2409;DHT22;8463;48.094;7.970;2022-09-12T20:26:03;19.10;22.60
2409;DHT22;8463;48.094;7.970;2022-09-12T20:28:29;18.90;23.30
2409;DHT22;8463;48.094;7.970;2022-09-12T20:36:11;18.60;24.20
2409;DHT22;8463;48.094;7.970;2022-09-12T20:38:37;18.60;24.20
2409;DHT22;8463;48.094;7.970;2022-09-12T20:41:05;18.50;24.40
2409;DHT22;8463;48.094;7.970;2022-09-12T20:43:31;18.40;24.50
2409;DHT22;8463;48.094;7.970;2022-09-12T20:45:57;18.40;24.50
2409;DHT22;8463;48.094;7.970;2022-09-12T20:48:23;18.40;24.60
2409;DHT22;8463;48.094;7.970;2022-09-12T20:50:49;18.40;24.60
2409;DHT22;8463;48.094;7.970;2022-09-12T20:55:49;18.20;25.50
2409;DHT22;8463;48.094;7.970;2022-09-12T20:58:16;18.10;25.90
2409;DHT22;8463;48.094;7.970;2022-09-12T21:00:41;18.10;25.90
2409;DHT22;8463;48.094;7.970;2022-09-12T21:03:07;18.00;26.10
2409;DHT22;8463;48.094;7.970;2022-09-12T21:10:25;18.00;26.30
2409;DHT22;8463;48.094;7.970;2022-09-12T21:12:54;18.00;26.30
2409;DHT22;8463;48.094;7.970;2022-09-12T21:15:19;17.90;26.50
2409;DHT22;8463;48.094;7.970;2022-09-12T21:17:45;17.90;27.10
2409;DHT22;8463;48.094;7.970;2022-09-12T21:20:10;17.80;26.80
2409;DHT22;8463;48.094;7.970;2022-09-12T21:22:37;17.80;26.80
2409;DHT22;8463;48.094;7.970;2022-09-12T21:25:02;17.80;26.90
2409;DHT22;8463;48.094;7.970;2022-09-12T21:27:28;17.70;27.30
2409;DHT22;8463;48.094;7.970;2022-09-12T21:29:54;17.80;26.70
2409;DHT22;8463;48.094;7.970;2022-09-12T21:32:20;17.70;26.70
2409;DHT22;8463;48.094;7.970;2022-09-12T21:34:45;17.60;26.90
2409;DHT22;8463;48.094;7.970;2022-09-12T21:37:12;17.60;27.00
2409;DHT22;8463;48.094;7.970;2022-09-12T21:39:38;17.50;27.40
2409;DHT22;8463;48.094;7.970;2022-09-12T21:42:03;17.50;27.70
2409;DHT22;8463;48.094;7.970;2022-09-12T21:44:29;17.50;27.60
2409;DHT22;8463;48.094;7.970;2022-09-12T21:46:55;17.30;27.30
2409;DHT22;8463;48.094;7.970;2022-09-12T21:49:20;17.30;28.20
2409;DHT22;8463;48.094;7.970;2022-09-12T21:51:46;17.30;28.60
2409;DHT22;8463;48.094;7.970;2022-09-12T21:54:12;17.30;28.60
2409;DHT22;8463;48.094;7.970;2022-09-12T21:56:38;17.30;28.60
2409;DHT22;8463;48.094;7.970;2022-09-12T21:59:03;17.30;28.20
2409;DHT22;8463;48.094;7.970;2022-09-12T22:01:29;17.40;28.60